sensor_id;sensor_type;location;lat;lon;timestamp;P1;durP1;ratioP1;P2;durP2;ratioP2
54831;SDS011;40730;53.068;6.572;2023-12-07T00:00:03;21.25;;;12.55;;
54831;SDS011;40730;53.068;6.572;2023-12-07T00:02:29;18.67;;;11.63;;
54831;SDS011;40730;53.068;6.572;2023-12-07T00:04:54;27.25;;;12.70;;
54831;SDS011;40730;53.068;6.572;2023-12-07T00:07:20;21.20;;;12.05;;
54831;SDS011;40730;53.068;6.572;2023-12-07T00:09:46;21.25;;;12.52;;
54831;SDS011;40730;53.068;6.572;2023-12-07T00:12:11;18.92;;;11.93;;
54831;SDS011;40730;53.068;6.572;2023-12-07T00:14:37;22.08;;;12.63;;
54831;SDS011;40730;53.068;6.572;2023-12-07T00:17:02;20.90;;;12.20;;
54831;SDS011;40730;53.068;6.572;2023-12-07T00:19:28;18.85;;;10.45;;
54831;SDS011;40730;53.068;6.572;2023-12-07T00:21:54;18.00;;;10.10;;
54831;SDS011;40730;53.068;6.572;2023-12-07T00:24:20;19.02;;;11.27;;
54831;SDS011;40730;53.068;6.572;2023-12-07T00:26:45;17.95;;;11.20;;
54831;SDS011;40730;53.068;6.572;2023-12-07T00:29:11;19.08;;;11.73;;
54831;SDS011;40730;53.068;6.572;2023-12-07T00:31:37;15.50;;;11.00;;
54831;SDS011;40730;53.068;6.572;2023-12-07T00:34:02;17.13;;;11.60;;
54831;SDS011;40730;53.068;6.572;2023-12-07T00:36:28;19.00;;;10.85;;
54831;SDS011;40730;53.068;6.572;2023-12-07T00:38:54;14.38;;;9.77;;
54831;SDS011;40730;53.068;6.572;2023-12-07T00:41:20;17.70;;;10.60;;
54831;SDS011;40730;53.068;6.572;2023-12-07T00:43:46;17.85;;;11.73;;
54831;SDS011;40730;53.068;6.572;2023-12-07T00:46:12;17.35;;;10.80;;
54831;SDS011;40730;53.068;6.572;2023-12-07T00:48:38;16.52;;;11.32;;
54831;SDS011;40730;53.068;6.572;2023-12-07T00:51:05;18.45;;;11.57;;
54831;SDS011;40730;53.068;6.572;2023-12-07T00:53:31;16.25;;;11.05;;
54831;SDS011;40730;53.068;6.572;2023-12-07T00:55:57;17.58;;;10.77;;
54831;SDS011;40730;53.068;6.572;2023-12-07T00:58:22;15.18;;;10.55;;
54831;SDS011;40730;53.068;6.572;2023-12-07T01:00:48;18.40;;;11.60;;
54831;SDS011;40730;53.068;6.572;2023-12-07T01:03:14;15.85;;;10.52;;
54831;SDS011;40730;53.068;6.572;2023-12-07T01:05:39;17.67;;;10.38;;
54831;SDS011;40730;53.068;6.572;2023-12-07T01:08:05;22.92;;;11.77;;
54831;SDS011;40730;53.068;6.572;2023-12-07T01:10:31;17.30;;;11.45;;
54831;SDS011;40730;53.068;6.572;2023-12-07T01:12:57;18.45;;;11.63;;
54831;SDS011;40730;53.068;6.572;2023-12-07T01:15:23;14.80;;;10.45;;
54831;SDS011;40730;53.068;6.572;2023-12-07T01:17:48;23.70;;;12.50;;
54831;SDS011;40730;53.068;6.572;2023-12-07T01:20:14;20.77;;;10.30;;
54831;SDS011;40730;53.068;6.572;2023-12-07T01:22:40;19.48;;;10.73;;
54831;SDS011;40730;53.068;6.572;2023-12-07T01:25:10;18.15;;;10.15;;
54831;SDS011;40730;53.068;6.572;2023-12-07T01:27:36;15.77;;;10.82;;
54831;SDS011;40730;53.068;6.572;2023-12-07T01:30:02;18.25;;;10.75;;
54831;SDS011;40730;53.068;6.572;2023-12-07T01:32:28;15.88;;;9.48;;
54831;SDS011;40730;53.068;6.572;2023-12-07T01:34:54;20.20;;;10.48;;
54831;SDS011;40730;53.068;6.572;2023-12-07T01:37:20;13.07;;;8.82;;
54831;SDS011;40730;53.068;6.572;2023-12-07T01:39:46;16.88;;;9.88;;
54831;SDS011;40730;53.068;6.572;2023-12-07T01:42:11;15.20;;;10.18;;
54831;SDS011;40730;53.068;6.572;2023-12-07T01:44:37;15.07;;;10.10;;
54831;SDS011;40730;53.068;6.572;2023-12-07T01:47:04;18.25;;;9.50;;
54831;SDS011;40730;53.068;6.572;2023-12-07T01:49:31;14.38;;;9.45;;
54831;SDS011;40730;53.068;6.572;2023-12-07T01:51:57;19.10;;;9.73;;
54831;SDS011;40730;53.068;6.572;2023-12-07T01:54:23;18.98;;;11.57;;
54831;SDS011;40730;53.068;6.572;2023-12-07T01:56:49;20.58;;;9.25;;
54831;SDS011;40730;53.068;6.572;2023-12-07T01:59:16;15.32;;;9.50;;
54831;SDS011;40730;53.068;6.572;2023-12-07T02:01:41;16.08;;;10.00;;
54831;SDS011;40730;53.068;6.572;2023-12-07T02:04:09;15.35;;;10.10;;
54831;SDS011;40730;53.068;6.572;2023-12-07T02:06:35;15.80;;;9.48;;
54831;SDS011;40730;53.068;6.572;2023-12-07T02:09:00;20.05;;;9.65;;
54831;SDS011;40730;53.068;6.572;2023-12-07T02:11:26;17.95;;;9.73;;
54831;SDS011;40730;53.068;6.572;2023-12-07T02:13:52;19.92;;;9.63;;
54831;SDS011;40730;53.068;6.572;2023-12-07T02:16:29;16.20;;;9.57;;
54831;SDS011;40730;53.068;6.572;2023-12-07T02:19:09;16.00;;;9.82;;
54831;SDS011;40730;53.068;6.572;2023-12-07T02:21:59;15.15;;;9.68;;
54831;SDS011;40730;53.068;6.572;2023-12-07T02:24:27;17.05;;;9.80;;
54831;SDS011;40730;53.068;6.572;2023-12-07T02:26:58;13.95;;;10.15;;
54831;SDS011;40730;53.068;6.572;2023-12-07T02:29:24;13.77;;;8.80;;
54831;SDS011;40730;53.068;6.572;2023-12-07T02:31:50;16.90;;;10.07;;
54831;SDS011;40730;53.068;6.572;2023-12-07T02:34:15;18.17;;;10.15;;
54831;SDS011;40730;53.068;6.572;2023-12-07T02:36:41;15.45;;;9.68;;
54831;SDS011;40730;53.068;6.572;2023-12-07T02:39:10;15.10;;;10.02;;
54831;SDS011;40730;53.068;6.572;2023-12-07T02:41:37;18.45;;;10.57;;
54831;SDS011;40730;53.068;6.572;2023-12-07T02:44:05;15.55;;;8.68;;
54831;SDS011;40730;53.068;6.572;2023-12-07T02:46:30;19.83;;;10.23;;
54831;SDS011;40730;53.068;6.572;2023-12-07T02:48:57;22.70;;;11.70;;
54831;SDS011;40730;53.068;6.572;2023-12-07T02:51:23;19.63;;;10.57;;
54831;SDS011;40730;53.068;6.572;2023-12-07T02:53:49;14.52;;;8.95;;
54831;SDS011;40730;53.068;6.572;2023-12-07T02:56:14;17.58;;;9.38;;
54831;SDS011;40730;53.068;6.572;2023-12-07T02:58:40;17.65;;;10.13;;
54831;SDS011;40730;53.068;6.572;2023-12-07T03:01:05;17.27;;;11.00;;
54831;SDS011;40730;53.068;6.572;2023-12-07T03:03:31;15.90;;;11.00;;
54831;SDS011;40730;53.068;6.572;2023-12-07T03:05:57;20.23;;;11.35;;
54831;SDS011;40730;53.068;6.572;2023-12-07T03:08:22;19.60;;;10.93;;
54831;SDS011;40730;53.068;6.572;2023-12-07T03:10:48;18.67;;;10.98;;
54831;SDS011;40730;53.068;6.572;2023-12-07T03:13:13;20.10;;;10.05;;
54831;SDS011;40730;53.068;6.572;2023-12-07T03:15:39;18.85;;;10.82;;
54831;SDS011;40730;53.068;6.572;2023-12-07T03:18:05;19.75;;;11.18;;
54831;SDS011;40730;53.068;6.572;2023-12-07T03:20:30;19.73;;;11.15;;
54831;SDS011;40730;53.068;6.572;2023-12-07T03:22:56;18.83;;;10.60;;
54831;SDS011;40730;53.068;6.572;2023-12-07T03:25:22;21.92;;;11.68;;
54831;SDS011;40730;53.068;6.572;2023-12-07T03:27:47;23.08;;;12.93;;
54831;SDS011;40730;53.068;6.572;2023-12-07T03:30:13;22.35;;;11.55;;
54831;SDS011;40730;53.068;6.572;2023-12-07T03:32:38;25.83;;;11.85;;
54831;SDS011;40730;53.068;6.572;2023-12-07T03:35:04;22.45;;;12.68;;
54831;SDS011;40730;53.068;6.572;2023-12-07T03:37:30;23.38;;;12.95;;
54831;SDS011;40730;53.068;6.572;2023-12-07T03:39:56;25.13;;;12.90;;
54831;SDS011;40730;53.068;6.572;2023-12-07T03:42:21;21.88;;;11.35;;
54831;SDS011;40730;53.068;6.572;2023-12-07T03:44:47;25.85;;;12.05;;
54831;SDS011;40730;53.068;6.572;2023-12-07T03:47:13;31.17;;;14.18;;
54831;SDS011;40730;53.068;6.572;2023-12-07T03:49:38;22.80;;;11.80;;
54831;SDS011;40730;53.068;6.572;2023-12-07T03:52:06;26.05;;;14.18;;
54831;SDS011;40730;53.068;6.572;2023-12-07T03:54:32;31.50;;;13.95;;
54831;SDS011;40730;53.068;6.572;2023-12-07T03:56:57;28.80;;;14.35;;
54831;SDS011;40730;53.068;6.572;2023-12-07T03:59:23;24.17;;;12.25;;
54831;SDS011;40730;53.068;6.572;2023-12-07T04:01:49;27.70;;;13.45;;
54831;SDS011;40730;53.068;6.572;2023-12-07T04:04:14;31.27;;;14.75;;
54831;SDS011;40730;53.068;6.572;2023-12-07T04:06:40;26.95;;;14.05;;
54831;SDS011;40730;53.068;6.572;2023-12-07T04:09:05;29.63;;;14.95;;
54831;SDS011;40730;53.068;6.572;2023-12-07T04:11:31;26.15;;;13.55;;
54831;SDS011;40730;53.068;6.572;2023-12-07T04:13:57;28.25;;;13.95;;
54831;SDS011;40730;53.068;6.572;2023-12-07T04:16:22;26.27;;;13.95;;
54831;SDS011;40730;53.068;6.572;2023-12-07T04:18:48;29.90;;;15.65;;
54831;SDS011;40730;53.068;6.572;2023-12-07T04:21:14;24.83;;;13.65;;
54831;SDS011;40730;53.068;6.572;2023-12-07T04:23:39;32.15;;;14.40;;
54831;SDS011;40730;53.068;6.572;2023-12-07T04:26:05;27.20;;;13.48;;
54831;SDS011;40730;53.068;6.572;2023-12-07T04:28:31;31.83;;;14.63;;
54831;SDS011;40730;53.068;6.572;2023-12-07T04:30:56;25.25;;;12.45;;
54831;SDS011;40730;53.068;6.572;2023-12-07T04:33:22;35.22;;;15.18;;
54831;SDS011;40730;53.068;6.572;2023-12-07T04:35:47;39.97;;;15.68;;
54831;SDS011;40730;53.068;6.572;2023-12-07T04:38:13;34.85;;;15.02;;
54831;SDS011;40730;53.068;6.572;2023-12-07T04:40:39;32.90;;;14.07;;
54831;SDS011;40730;53.068;6.572;2023-12-07T04:43:04;40.05;;;14.85;;
54831;SDS011;40730;53.068;6.572;2023-12-07T04:45:30;29.40;;;12.27;;
54831;SDS011;40730;53.068;6.572;2023-12-07T04:47:55;41.00;;;15.90;;
54831;SDS011;40730;53.068;6.572;2023-12-07T04:50:22;39.50;;;15.10;;
54831;SDS011;40730;53.068;6.572;2023-12-07T04:52:48;33.00;;;14.80;;
54831;SDS011;40730;53.068;6.572;2023-12-07T04:55:14;35.63;;;15.18;;
54831;SDS011;40730;53.068;6.572;2023-12-07T04:57:41;36.67;;;15.45;;
54831;SDS011;40730;53.068;6.572;2023-12-07T05:00:06;35.00;;;15.95;;
54831;SDS011;40730;53.068;6.572;2023-12-07T05:02:34;39.65;;;16.30;;
54831;SDS011;40730;53.068;6.572;2023-12-07T05:05:00;47.03;;;16.60;;
54831;SDS011;40730;53.068;6.572;2023-12-07T05:07:25;41.13;;;16.30;;
54831;SDS011;40730;53.068;6.572;2023-12-07T05:09:51;39.40;;;15.48;;
54831;SDS011;40730;53.068;6.572;2023-12-07T05:12:17;44.53;;;16.33;;
54831;SDS011;40730;53.068;6.572;2023-12-07T05:14:43;39.33;;;16.88;;
54831;SDS011;40730;53.068;6.572;2023-12-07T05:17:08;40.35;;;17.30;;
54831;SDS011;40730;53.068;6.572;2023-12-07T05:19:34;54.42;;;19.13;;
54831;SDS011;40730;53.068;6.572;2023-12-07T05:22:00;38.95;;;16.45;;
54831;SDS011;40730;53.068;6.572;2023-12-07T05:24:25;46.45;;;18.05;;
54831;SDS011;40730;53.068;6.572;2023-12-07T05:26:51;45.22;;;16.98;;
54831;SDS011;40730;53.068;6.572;2023-12-07T05:29:17;39.00;;;15.68;;
54831;SDS011;40730;53.068;6.572;2023-12-07T05:31:43;35.63;;;15.50;;
54831;SDS011;40730;53.068;6.572;2023-12-07T05:34:09;39.80;;;16.48;;
54831;SDS011;40730;53.068;6.572;2023-12-07T05:36:34;52.88;;;18.75;;
54831;SDS011;40730;53.068;6.572;2023-12-07T05:39:00;39.38;;;16.48;;
54831;SDS011;40730;53.068;6.572;2023-12-07T05:41:26;35.67;;;15.40;;
54831;SDS011;40730;53.068;6.572;2023-12-07T05:43:52;42.22;;;16.40;;
54831;SDS011;40730;53.068;6.572;2023-12-07T05:46:18;43.95;;;15.25;;
54831;SDS011;40730;53.068;6.572;2023-12-07T05:48:44;46.30;;;15.93;;
54831;SDS011;40730;53.068;6.572;2023-12-07T05:51:13;42.88;;;16.17;;
54831;SDS011;40730;53.068;6.572;2023-12-07T05:53:40;42.45;;;16.90;;
54831;SDS011;40730;53.068;6.572;2023-12-07T05:56:05;47.78;;;16.83;;
54831;SDS011;40730;53.068;6.572;2023-12-07T05:58:31;50.40;;;18.55;;
54831;SDS011;40730;53.068;6.572;2023-12-07T06:00:57;47.42;;;18.35;;
54831;SDS011;40730;53.068;6.572;2023-12-07T06:03:24;49.53;;;17.50;;
54831;SDS011;40730;53.068;6.572;2023-12-07T06:05:50;56.35;;;18.67;;
54831;SDS011;40730;53.068;6.572;2023-12-07T06:08:16;56.50;;;18.35;;
54831;SDS011;40730;53.068;6.572;2023-12-07T06:10:42;44.60;;;15.85;;
54831;SDS011;40730;53.068;6.572;2023-12-07T06:13:08;50.20;;;17.45;;
54831;SDS011;40730;53.068;6.572;2023-12-07T06:15:33;50.45;;;18.13;;
54831;SDS011;40730;53.068;6.572;2023-12-07T06:17:59;47.35;;;16.40;;
54831;SDS011;40730;53.068;6.572;2023-12-07T06:20:25;49.50;;;17.45;;
54831;SDS011;40730;53.068;6.572;2023-12-07T06:22:50;61.97;;;17.88;;
54831;SDS011;40730;53.068;6.572;2023-12-07T06:25:16;52.05;;;17.50;;
54831;SDS011;40730;53.068;6.572;2023-12-07T06:27:42;56.88;;;16.63;;
54831;SDS011;40730;53.068;6.572;2023-12-07T06:30:07;63.00;;;17.80;;
54831;SDS011;40730;53.068;6.572;2023-12-07T06:32:33;68.65;;;18.92;;
54831;SDS011;40730;53.068;6.572;2023-12-07T06:35:00;50.75;;;18.65;;
54831;SDS011;40730;53.068;6.572;2023-12-07T06:37:26;60.65;;;18.58;;
54831;SDS011;40730;53.068;6.572;2023-12-07T06:39:51;56.63;;;19.88;;
54831;SDS011;40730;53.068;6.572;2023-12-07T06:42:17;55.42;;;18.38;;
54831;SDS011;40730;53.068;6.572;2023-12-07T06:44:43;58.55;;;19.65;;
54831;SDS011;40730;53.068;6.572;2023-12-07T06:47:12;56.88;;;19.60;;
54831;SDS011;40730;53.068;6.572;2023-12-07T06:49:38;92.13;;;21.42;;
54831;SDS011;40730;53.068;6.572;2023-12-07T06:52:03;64.60;;;18.98;;
54831;SDS011;40730;53.068;6.572;2023-12-07T06:54:29;60.42;;;20.15;;
54831;SDS011;40730;53.068;6.572;2023-12-07T06:56:54;56.22;;;20.73;;
54831;SDS011;40730;53.068;6.572;2023-12-07T06:59:20;56.92;;;20.35;;
54831;SDS011;40730;53.068;6.572;2023-12-07T07:01:46;60.22;;;21.98;;
54831;SDS011;40730;53.068;6.572;2023-12-07T07:04:11;64.43;;;20.90;;
54831;SDS011;40730;53.068;6.572;2023-12-07T07:06:38;70.22;;;23.25;;
54831;SDS011;40730;53.068;6.572;2023-12-07T07:09:08;72.10;;;24.90;;
54831;SDS011;40730;53.068;6.572;2023-12-07T07:11:33;75.10;;;24.60;;
54831;SDS011;40730;53.068;6.572;2023-12-07T07:13:59;72.55;;;24.08;;
54831;SDS011;40730;53.068;6.572;2023-12-07T07:16:25;73.78;;;26.10;;
54831;SDS011;40730;53.068;6.572;2023-12-07T07:18:51;81.22;;;25.50;;
54831;SDS011;40730;53.068;6.572;2023-12-07T07:21:17;79.43;;;26.98;;
54831;SDS011;40730;53.068;6.572;2023-12-07T07:23:44;77.95;;;26.70;;
54831;SDS011;40730;53.068;6.572;2023-12-07T07:26:10;81.75;;;28.17;;
54831;SDS011;40730;53.068;6.572;2023-12-07T07:28:36;77.97;;;28.10;;
54831;SDS011;40730;53.068;6.572;2023-12-07T07:31:02;84.38;;;27.70;;
54831;SDS011;40730;53.068;6.572;2023-12-07T07:33:27;80.85;;;28.13;;
54831;SDS011;40730;53.068;6.572;2023-12-07T07:35:53;82.05;;;26.38;;
54831;SDS011;40730;53.068;6.572;2023-12-07T07:38:19;85.05;;;27.42;;
54831;SDS011;40730;53.068;6.572;2023-12-07T07:40:44;83.03;;;28.00;;
54831;SDS011;40730;53.068;6.572;2023-12-07T07:43:12;76.40;;;27.52;;
54831;SDS011;40730;53.068;6.572;2023-12-07T07:45:38;81.97;;;25.42;;
54831;SDS011;40730;53.068;6.572;2023-12-07T07:48:03;80.03;;;28.15;;
54831;SDS011;40730;53.068;6.572;2023-12-07T07:50:29;76.63;;;26.80;;
54831;SDS011;40730;53.068;6.572;2023-12-07T07:52:55;65.65;;;23.73;;
54831;SDS011;40730;53.068;6.572;2023-12-07T07:55:20;78.75;;;27.10;;
54831;SDS011;40730;53.068;6.572;2023-12-07T07:57:46;79.43;;;26.95;;
54831;SDS011;40730;53.068;6.572;2023-12-07T08:00:12;76.43;;;24.52;;
54831;SDS011;40730;53.068;6.572;2023-12-07T08:02:38;87.63;;;30.15;;
54831;SDS011;40730;53.068;6.572;2023-12-07T08:05:04;69.78;;;26.55;;
54831;SDS011;40730;53.068;6.572;2023-12-07T08:07:30;80.05;;;27.42;;
54831;SDS011;40730;53.068;6.572;2023-12-07T08:09:56;90.78;;;26.20;;
54831;SDS011;40730;53.068;6.572;2023-12-07T08:12:21;78.53;;;27.20;;
54831;SDS011;40730;53.068;6.572;2023-12-07T08:14:50;76.35;;;25.38;;
54831;SDS011;40730;53.068;6.572;2023-12-07T08:17:15;86.47;;;29.77;;
54831;SDS011;40730;53.068;6.572;2023-12-07T08:19:41;86.22;;;30.27;;
54831;SDS011;40730;53.068;6.572;2023-12-07T08:22:07;85.43;;;29.60;;
54831;SDS011;40730;53.068;6.572;2023-12-07T08:24:33;88.55;;;31.42;;
54831;SDS011;40730;53.068;6.572;2023-12-07T08:26:59;79.97;;;29.58;;
54831;SDS011;40730;53.068;6.572;2023-12-07T08:29:25;77.78;;;30.73;;
54831;SDS011;40730;53.068;6.572;2023-12-07T08:31:50;77.50;;;27.98;;
54831;SDS011;40730;53.068;6.572;2023-12-07T08:34:16;88.50;;;32.45;;
54831;SDS011;40730;53.068;6.572;2023-12-07T08:36:42;81.35;;;32.13;;
54831;SDS011;40730;53.068;6.572;2023-12-07T08:39:07;77.15;;;29.67;;
54831;SDS011;40730;53.068;6.572;2023-12-07T08:41:35;77.38;;;32.40;;
54831;SDS011;40730;53.068;6.572;2023-12-07T08:44:01;74.40;;;30.05;;
54831;SDS011;40730;53.068;6.572;2023-12-07T08:46:27;80.60;;;33.30;;
54831;SDS011;40730;53.068;6.572;2023-12-07T08:48:53;70.35;;;31.02;;
54831;SDS011;40730;53.068;6.572;2023-12-07T08:51:19;68.13;;;30.13;;
54831;SDS011;40730;53.068;6.572;2023-12-07T08:53:44;70.32;;;30.73;;
54831;SDS011;40730;53.068;6.572;2023-12-07T08:56:11;73.05;;;33.00;;
54831;SDS011;40730;53.068;6.572;2023-12-07T08:58:38;69.65;;;32.08;;
54831;SDS011;40730;53.068;6.572;2023-12-07T09:01:04;72.32;;;32.33;;
54831;SDS011;40730;53.068;6.572;2023-12-07T09:03:30;67.28;;;30.73;;
54831;SDS011;40730;53.068;6.572;2023-12-07T09:05:57;67.95;;;30.63;;
54831;SDS011;40730;53.068;6.572;2023-12-07T09:08:23;66.00;;;32.50;;
54831;SDS011;40730;53.068;6.572;2023-12-07T09:10:48;67.85;;;33.10;;
54831;SDS011;40730;53.068;6.572;2023-12-07T09:13:17;66.80;;;29.70;;
54831;SDS011;40730;53.068;6.572;2023-12-07T09:15:43;60.33;;;29.27;;
54831;SDS011;40730;53.068;6.572;2023-12-07T09:18:09;65.60;;;30.58;;
54831;SDS011;40730;53.068;6.572;2023-12-07T09:20:36;63.60;;;29.33;;
54831;SDS011;40730;53.068;6.572;2023-12-07T09:23:02;61.08;;;28.90;;
54831;SDS011;40730;53.068;6.572;2023-12-07T09:25:28;55.92;;;26.77;;
54831;SDS011;40730;53.068;6.572;2023-12-07T09:27:55;52.13;;;27.05;;
54831;SDS011;40730;53.068;6.572;2023-12-07T09:30:21;49.60;;;24.38;;
54831;SDS011;40730;53.068;6.572;2023-12-07T09:32:47;49.58;;;26.13;;
54831;SDS011;40730;53.068;6.572;2023-12-07T09:35:12;48.38;;;23.88;;
54831;SDS011;40730;53.068;6.572;2023-12-07T09:37:40;54.60;;;25.45;;
54831;SDS011;40730;53.068;6.572;2023-12-07T09:40:06;45.33;;;23.60;;
54831;SDS011;40730;53.068;6.572;2023-12-07T09:42:32;46.28;;;23.83;;
54831;SDS011;40730;53.068;6.572;2023-12-07T09:44:58;45.95;;;24.25;;
54831;SDS011;40730;53.068;6.572;2023-12-07T09:47:26;46.42;;;23.83;;
54831;SDS011;40730;53.068;6.572;2023-12-07T09:49:53;40.20;;;22.08;;
54831;SDS011;40730;53.068;6.572;2023-12-07T09:52:19;43.17;;;22.83;;
54831;SDS011;40730;53.068;6.572;2023-12-07T09:54:47;35.75;;;21.13;;
54831;SDS011;40730;53.068;6.572;2023-12-07T09:57:14;35.60;;;20.33;;
54831;SDS011;40730;53.068;6.572;2023-12-07T09:59:40;33.85;;;20.67;;
54831;SDS011;40730;53.068;6.572;2023-12-07T10:02:06;36.13;;;20.10;;
54831;SDS011;40730;53.068;6.572;2023-12-07T10:04:35;44.15;;;22.85;;
54831;SDS011;40730;53.068;6.572;2023-12-07T10:07:01;41.63;;;21.45;;
54831;SDS011;40730;53.068;6.572;2023-12-07T10:09:27;36.28;;;20.25;;
54831;SDS011;40730;53.068;6.572;2023-12-07T10:12:03;33.72;;;19.35;;
54831;SDS011;40730;53.068;6.572;2023-12-07T10:14:29;33.28;;;19.55;;
54831;SDS011;40730;53.068;6.572;2023-12-07T10:16:55;33.80;;;19.27;;
54831;SDS011;40730;53.068;6.572;2023-12-07T10:19:22;35.33;;;19.02;;
54831;SDS011;40730;53.068;6.572;2023-12-07T10:21:48;32.90;;;20.15;;
54831;SDS011;40730;53.068;6.572;2023-12-07T10:24:17;28.60;;;17.02;;
54831;SDS011;40730;53.068;6.572;2023-12-07T10:26:44;29.92;;;18.70;;
54831;SDS011;40730;53.068;6.572;2023-12-07T10:29:10;33.35;;;17.60;;
54831;SDS011;40730;53.068;6.572;2023-12-07T10:31:36;30.67;;;18.35;;
54831;SDS011;40730;53.068;6.572;2023-12-07T10:34:02;31.38;;;18.92;;
54831;SDS011;40730;53.068;6.572;2023-12-07T10:36:29;32.03;;;18.70;;
54831;SDS011;40730;53.068;6.572;2023-12-07T10:38:55;28.20;;;16.80;;
54831;SDS011;40730;53.068;6.572;2023-12-07T10:41:23;30.92;;;17.77;;
54831;SDS011;40730;53.068;6.572;2023-12-07T10:43:53;27.65;;;16.92;;
54831;SDS011;40730;53.068;6.572;2023-12-07T10:46:22;26.42;;;16.33;;
54831;SDS011;40730;53.068;6.572;2023-12-07T10:48:48;29.08;;;18.42;;
54831;SDS011;40730;53.068;6.572;2023-12-07T10:51:23;27.38;;;17.73;;
54831;SDS011;40730;53.068;6.572;2023-12-07T10:54:02;25.10;;;17.35;;
54831;SDS011;40730;53.068;6.572;2023-12-07T10:56:32;26.15;;;17.55;;
54831;SDS011;40730;53.068;6.572;2023-12-07T10:59:05;28.58;;;17.58;;
54831;SDS011;40730;53.068;6.572;2023-12-07T11:01:33;27.52;;;16.83;;
54831;SDS011;40730;53.068;6.572;2023-12-07T11:03:59;24.58;;;16.23;;
54831;SDS011;40730;53.068;6.572;2023-12-07T11:06:26;23.95;;;16.25;;
54831;SDS011;40730;53.068;6.572;2023-12-07T11:08:56;22.52;;;15.02;;
54831;SDS011;40730;53.068;6.572;2023-12-07T11:14:22;22.45;;;16.05;;
54831;SDS011;40730;53.068;6.572;2023-12-07T11:16:48;22.73;;;15.13;;
54831;SDS011;40730;53.068;6.572;2023-12-07T11:22:02;22.15;;;15.20;;
54831;SDS011;40730;53.068;6.572;2023-12-07T11:24:31;27.92;;;16.42;;
54831;SDS011;40730;53.068;6.572;2023-12-07T11:26:56;23.60;;;16.08;;
54831;SDS011;40730;53.068;6.572;2023-12-07T11:29:25;24.75;;;15.68;;
54831;SDS011;40730;53.068;6.572;2023-12-07T11:32:03;20.02;;;12.75;;
54831;SDS011;40730;53.068;6.572;2023-12-07T11:34:33;22.80;;;14.60;;
54831;SDS011;40730;53.068;6.572;2023-12-07T11:37:09;24.35;;;14.88;;
54831;SDS011;40730;53.068;6.572;2023-12-07T11:39:36;22.50;;;15.07;;
54831;SDS011;40730;53.068;6.572;2023-12-07T11:42:09;25.52;;;15.98;;
54831;SDS011;40730;53.068;6.572;2023-12-07T11:44:39;31.20;;;17.88;;
54831;SDS011;40730;53.068;6.572;2023-12-07T11:47:06;28.90;;;16.23;;
54831;SDS011;40730;53.068;6.572;2023-12-07T11:49:32;30.42;;;16.83;;
54831;SDS011;40730;53.068;6.572;2023-12-07T11:51:58;30.05;;;17.00;;
54831;SDS011;40730;53.068;6.572;2023-12-07T11:54:25;29.52;;;17.50;;
54831;SDS011;40730;53.068;6.572;2023-12-07T11:56:57;30.83;;;17.90;;
54831;SDS011;40730;53.068;6.572;2023-12-07T11:59:24;49.97;;;18.63;;
54831;SDS011;40730;53.068;6.572;2023-12-07T12:01:52;32.08;;;17.35;;
54831;SDS011;40730;53.068;6.572;2023-12-07T12:04:21;53.92;;;17.83;;
54831;SDS011;40730;53.068;6.572;2023-12-07T12:06:47;36.83;;;18.30;;
54831;SDS011;40730;53.068;6.572;2023-12-07T12:09:15;45.33;;;19.88;;
54831;SDS011;40730;53.068;6.572;2023-12-07T12:11:44;41.70;;;18.70;;
54831;SDS011;40730;53.068;6.572;2023-12-07T12:14:16;44.03;;;19.35;;
54831;SDS011;40730;53.068;6.572;2023-12-07T12:16:45;62.38;;;20.10;;
54831;SDS011;40730;53.068;6.572;2023-12-07T12:19:11;44.95;;;19.58;;
54831;SDS011;40730;53.068;6.572;2023-12-07T12:21:39;65.57;;;20.77;;
54831;SDS011;40730;53.068;6.572;2023-12-07T12:24:08;49.20;;;19.08;;
54831;SDS011;40730;53.068;6.572;2023-12-07T12:26:36;52.80;;;20.70;;
54831;SDS011;40730;53.068;6.572;2023-12-07T12:29:04;56.90;;;22.23;;
54831;SDS011;40730;53.068;6.572;2023-12-07T12:31:31;46.97;;;19.50;;
54831;SDS011;40730;53.068;6.572;2023-12-07T12:33:56;49.13;;;21.08;;
54831;SDS011;40730;53.068;6.572;2023-12-07T12:36:22;43.65;;;18.25;;
54831;SDS011;40730;53.068;6.572;2023-12-07T12:38:51;61.35;;;22.42;;
54831;SDS011;40730;53.068;6.572;2023-12-07T12:41:20;52.70;;;21.70;;
54831;SDS011;40730;53.068;6.572;2023-12-07T12:43:46;52.53;;;21.35;;
54831;SDS011;40730;53.068;6.572;2023-12-07T12:46:13;56.40;;;22.90;;
54831;SDS011;40730;53.068;6.572;2023-12-07T12:48:58;60.20;;;20.73;;
54831;SDS011;40730;53.068;6.572;2023-12-07T12:51:25;64.78;;;22.65;;
54831;SDS011;40730;53.068;6.572;2023-12-07T12:53:58;50.13;;;20.33;;
54831;SDS011;40730;53.068;6.572;2023-12-07T12:56:24;64.47;;;23.80;;
54831;SDS011;40730;53.068;6.572;2023-12-07T12:58:52;59.53;;;22.77;;
54831;SDS011;40730;53.068;6.572;2023-12-07T13:01:21;47.85;;;22.20;;
54831;SDS011;40730;53.068;6.572;2023-12-07T13:03:47;52.15;;;22.92;;
54831;SDS011;40730;53.068;6.572;2023-12-07T13:06:13;61.30;;;25.65;;
54831;SDS011;40730;53.068;6.572;2023-12-07T13:08:43;59.88;;;24.80;;
54831;SDS011;40730;53.068;6.572;2023-12-07T13:11:09;74.38;;;26.27;;
54831;SDS011;40730;53.068;6.572;2023-12-07T13:13:40;66.30;;;25.67;;
54831;SDS011;40730;53.068;6.572;2023-12-07T13:16:06;79.45;;;25.60;;
54831;SDS011;40730;53.068;6.572;2023-12-07T13:18:32;77.22;;;28.02;;
54831;SDS011;40730;53.068;6.572;2023-12-07T13:20:57;87.57;;;29.48;;
54831;SDS011;40730;53.068;6.572;2023-12-07T13:23:24;97.07;;;30.35;;
54831;SDS011;40730;53.068;6.572;2023-12-07T13:25:50;86.55;;;27.08;;
54831;SDS011;40730;53.068;6.572;2023-12-07T13:28:16;90.28;;;28.95;;
54831;SDS011;40730;53.068;6.572;2023-12-07T13:30:41;84.43;;;28.85;;
54831;SDS011;40730;53.068;6.572;2023-12-07T13:33:07;106.57;;;30.02;;
54831;SDS011;40730;53.068;6.572;2023-12-07T13:35:34;75.50;;;26.63;;
54831;SDS011;40730;53.068;6.572;2023-12-07T13:38:00;93.50;;;29.20;;
54831;SDS011;40730;53.068;6.572;2023-12-07T13:40:25;88.25;;;26.73;;
54831;SDS011;40730;53.068;6.572;2023-12-07T13:42:52;99.30;;;29.08;;
54831;SDS011;40730;53.068;6.572;2023-12-07T13:45:18;93.10;;;28.85;;
54831;SDS011;40730;53.068;6.572;2023-12-07T13:47:44;102.25;;;29.00;;
54831;SDS011;40730;53.068;6.572;2023-12-07T13:50:10;87.70;;;27.20;;
54831;SDS011;40730;53.068;6.572;2023-12-07T13:52:36;111.57;;;29.40;;
54831;SDS011;40730;53.068;6.572;2023-12-07T13:55:03;94.68;;;29.15;;
54831;SDS011;40730;53.068;6.572;2023-12-07T13:57:29;112.88;;;31.08;;
54831;SDS011;40730;53.068;6.572;2023-12-07T13:59:55;125.97;;;34.08;;
54831;SDS011;40730;53.068;6.572;2023-12-07T14:02:21;126.22;;;31.05;;
54831;SDS011;40730;53.068;6.572;2023-12-07T14:04:47;108.72;;;29.58;;
54831;SDS011;40730;53.068;6.572;2023-12-07T14:07:18;103.55;;;29.42;;
54831;SDS011;40730;53.068;6.572;2023-12-07T14:09:46;101.95;;;30.63;;
54831;SDS011;40730;53.068;6.572;2023-12-07T14:12:14;147.77;;;34.00;;
54831;SDS011;40730;53.068;6.572;2023-12-07T14:14:40;124.53;;;31.40;;
54831;SDS011;40730;53.068;6.572;2023-12-07T14:17:06;115.35;;;29.95;;
54831;SDS011;40730;53.068;6.572;2023-12-07T14:19:32;120.60;;;29.95;;
54831;SDS011;40730;53.068;6.572;2023-12-07T14:21:58;133.13;;;32.00;;